Idre Storbo, Sweden

10:34 PM CEST on April 18, 2015 (GMT +0200)
Roros | | Change Station
CLOSE
Current Station
Airport
Location: Roros Lufthavn,
Elevation: 2054 ft
Nearby Weather Stations

Elev 2054 ft 62.58 °N, 11.34 °E | Updated 14 minutes ago

Mostly Cloudy
Mostly Cloudy
36 °F
Feels Like 28 °F
N
12
Wind Variable Wind from NNW

Today
High -- | Low -- °F
--% Chance of Precip.
Yesterday
High -- | Low -- °F
Precip. -- in
5:39 AM 8:42 PM
New Moon, 0% visible
Pressure 30.27 in
Visibility 6.2 miles
Clouds Few 600 ft
Mostly Cloudy 1000 ft
Mostly Cloudy 1800 ft
Windchill 28 °F
Dew Point 34 °F
Humidity 93%
Rainfall 0.00 in
Snow Depth Not available.
UV 0 out of 12
Pollen Not available.
Air Quality Not available.
Flu Activity Not available.
METAR ENRO 182020Z AUTO 33010KT 300V360 9999NDV FEW006/// BKN010/// BKN018/// 02/01 Q1025

More Conditions Fewer Conditions

Pressure 30.27 in
Visibility 6.2 miles
Clouds Few 600 ft
Mostly Cloudy 1000 ft
Mostly Cloudy 1800 ft
Windchill 28 °F
Dew Point 34 °F
Humidity 93%
Rainfall 0.00 in
Snow Depth Not available.
UV 0 out of 12
Pollen Not available.
Air Quality Not available.
Flu Activity Not available.
METAR ENRO 182020Z AUTO 33010KT 300V360 9999NDV FEW006/// BKN010/// BKN018/// 02/01 Q1025

More Conditions Fewer Conditions

10-Day Weather Forecast

Almanac

Astronomy

Apr. 18, 2015 Rise Set
Actual Time
Civil Twilight
Nautical Twilight
Astronomical Twilight
Moon
Length of Visible Light
Length of Day
Tomorrow will be .
, % of the Moon is Illuminated

Today's Extremes

Country Highs Country Lows

Community

WunderPhotos

Upload Photos

1,814,519 photos uploaded!

WunderBlogs® & News

Nearby

Air Quality

  Air Quality AQ Index Pollutant
Not available.

Snow Depth

Station Depth Elevation

Earthquake Activity

City Distance Mag. Time & Date
Minimum magnitude displayed is 2.5.

Coastal Water Temperatures

Place Temperature

Stations

Nearby Weather Stations

Station Location Temp. Windchill Dew Point Humidity Wind Precip. Elev Updated Type